Terminal Aerodrome Forecast
Issued by NWS Pittsburgh, PA

Current Version | Previous Version | Graphics & Text | Print | Product List | Glossary On
Versions: 1 2 3 4 5 6 7 8 9 10 11 12 13 14 15 16 17 18 19 20 21 22 23 24 25 26 27 28 29 30 31
000
FTUS41 KPBZ 261258 AAA
TAFPIT
TAF AMD
KPIT 261258Z 2613/2718 27008KT P6SM VCSH OVC012
      TEMPO 2613/2615 2SM -SHRA
     FM261600 27010KT P6SM BKN020
     FM261800 28010KT P6SM BKN035
     FM270900 13003KT P6SM VCTS BKN025CB=

USA.gov is the U.S. government's official web portal to all federal, state and local government web resources and services.